Time;durP1;ratioP1;P1;durP2;ratioP2;P2;SDS_P1;SDS_P2;PMS_P1;PMS_P2;Temp;Humidity;BMP_temperature;BMP_pressure;BME280_temperature;BME280_humidity;BME280_pressure;Samples;Min_cycle;Max_cycle;Signal;HPM_P1;HPM_P2
2023/04/14 00:00:09;;;;;;;2.70;1.17;;;;;;;;;;5026253;28;20047;-72
2023/04/14 00:02:34;;;;;;;14.48;2.00;;;;;;;;;;5027532;28;20074;-72
2023/04/14 00:05:00;;;;;;;4.97;1.70;;;;;;;;;;5027932;28;20554;-73
2023/04/14 00:07:25;;;;;;;4.50;1.33;;;;;;;;;;5027658;28;20036;-72
2023/04/14 00:09:50;;;;;;;8.02;1.48;;;;;;;;;;5028022;28;20108;-72
2023/04/14 00:12:15;;;;;;;3.20;1.90;;;;;;;;;;5025365;28;20029;-73
2023/04/14 00:14:42;;;;;;;5.20;1.70;;;;;;;;;;5027789;28;20140;-73
2023/04/14 00:17:07;;;;;;;7.10;2.03;;;;;;;;;;5024658;28;20892;-73
2023/04/14 00:19:32;;;;;;;3.88;2.00;;;;;;;;;;5027385;28;20116;-70
2023/04/14 00:21:57;;;;;;;5.77;1.50;;;;;;;;;;5028910;28;20039;-71
2023/04/14 00:24:22;;;;;;;2.70;1.17;;;;;;;;;;5026387;28;20272;-70
2023/04/14 00:26:48;;;;;;;7.82;1.63;;;;;;;;;;5028932;28;20017;-72
2023/04/14 00:29:13;;;;;;;7.30;1.48;;;;;;;;;;5028016;28;20188;-73
2023/04/14 00:31:39;;;;;;;4.43;1.45;;;;;;;;;;5027779;28;20033;-72
2023/04/14 00:34:04;;;;;;;9.82;1.67;;;;;;;;;;5030987;28;20016;-72
2023/04/14 00:36:31;;;;;;;3.58;1.13;;;;;;;;;;5028650;28;20018;-72
2023/04/14 00:38:56;;;;;;;5.95;1.48;;;;;;;;;;5029719;28;20096;-73
2023/04/14 00:41:21;;;;;;;4.97;1.60;;;;;;;;;;5028486;28;20391;-72
2023/04/14 00:43:46;;;;;;;4.47;1.65;;;;;;;;;;5030629;28;20278;-72
2023/04/14 00:46:13;;;;;;;7.17;1.50;;;;;;;;;;5030866;28;20095;-72
2023/04/14 00:48:38;;;;;;;4.55;1.30;;;;;;;;;;5025334;28;20291;-73
2023/04/14 00:51:03;;;;;;;2.60;1.30;;;;;;;;;;5026741;28;20026;-72
2023/04/14 00:53:30;;;;;;;2.03;0.90;;;;;;;;;;5031492;28;20025;-72
2023/04/14 00:55:55;;;;;;;2.78;1.05;;;;;;;;;;5027699;28;20021;-73
2023/04/14 00:58:20;;;;;;;7.47;2.55;;;;;;;;;;5025199;28;20095;-73
2023/04/14 01:00:52;;;;;;;5.30;1.88;;;;;;;;;;5024767;28;20045;-72
2023/04/14 01:03:17;;;;;;;4.95;1.63;;;;;;;;;;5031404;28;20036;-72
2023/04/14 01:05:42;;;;;;;8.60;1.43;;;;;;;;;;5031944;28;20486;-72
2023/04/14 01:08:08;;;;;;;5.00;1.67;;;;;;;;;;5028872;28;20321;-72
2023/04/14 01:10:36;;;;;;;10.27;1.60;;;;;;;;;;5031060;28;20657;-73
2023/04/14 01:13:09;;;;;;;5.78;1.45;;;;;;;;;;5031437;28;20272;-72
2023/04/14 01:15:44;;;;;;;3.33;1.33;;;;;;;;;;5029278;28;20051;-72
2023/04/14 01:18:15;;;;;;;9.23;1.83;;;;;;;;;;5032130;28;20034;-72
2023/04/14 01:20:41;;;;;;;6.82;1.67;;;;;;;;;;5030929;28;20041;-72
2023/04/14 01:23:07;;;;;;;6.40;1.70;;;;;;;;;;5030832;28;20030;-72
2023/04/14 01:25:48;;;;;;;11.10;1.88;;;;;;;;;;5030278;28;20103;-72
2023/04/14 01:28:13;;;;;;;5.90;2.05;;;;;;;;;;5029918;28;20072;-72
2023/04/14 01:30:41;;;;;;;13.23;1.90;;;;;;;;;;5029582;28;20555;-72
2023/04/14 01:33:09;;;;;;;6.65;1.60;;;;;;;;;;5030899;28;20291;-72
2023/04/14 01:35:45;;;;;;;6.13;1.67;;;;;;;;;;5030580;28;20494;-72
2023/04/14 01:38:13;;;;;;;7.88;2.35;;;;;;;;;;5032327;28;20028;-73
2023/04/14 01:40:39;;;;;;;9.52;1.70;;;;;;;;;;5031161;28;20024;-72
2023/04/14 01:43:10;;;;;;;7.13;1.83;;;;;;;;;;5032778;28;20080;-72
2023/04/14 01:45:41;;;;;;;8.23;1.77;;;;;;;;;;5030627;28;20009;-72
2023/04/14 01:48:07;;;;;;;6.78;1.60;;;;;;;;;;5025798;28;20256;-73
2023/04/14 01:50:34;;;;;;;4.95;1.75;;;;;;;;;;5028635;28;20150;-72
2023/04/14 01:53:00;;;;;;;9.02;1.60;;;;;;;;;;5029821;28;20148;-72
2023/04/14 01:55:26;;;;;;;7.72;1.50;;;;;;;;;;5028470;28;20107;-72
2023/04/14 01:57:52;;;;;;;7.90;1.58;;;;;;;;;;5027901;28;20414;-72
2023/04/14 02:00:18;;;;;;;8.48;1.70;;;;;;;;;;5026449;28;20029;-72
2023/04/14 02:02:44;;;;;;;6.68;1.95;;;;;;;;;;5029807;28;20028;-72
2023/04/14 02:05:10;;;;;;;5.47;1.95;;;;;;;;;;5028595;28;20025;-72
2023/04/14 02:07:35;;;;;;;4.07;1.95;;;;;;;;;;5028909;28;20040;-72
2023/04/14 02:10:02;;;;;;;5.93;1.80;;;;;;;;;;5027693;28;20087;-72
2023/04/14 02:12:29;;;;;;;5.53;1.58;;;;;;;;;;5025467;28;20540;-72
2023/04/14 02:14:55;;;;;;;4.47;1.98;;;;;;;;;;5025934;28;20061;-73
2023/04/14 02:17:20;;;;;;;5.50;1.73;;;;;;;;;;5029808;28;20073;-72
2023/04/14 02:19:46;;;;;;;8.85;2.22;;;;;;;;;;5029834;28;20371;-72
2023/04/14 02:22:11;;;;;;;8.70;2.33;;;;;;;;;;5030881;28;20021;-72
2023/04/14 02:24:37;;;;;;;6.95;2.00;;;;;;;;;;5029417;28;20025;-72
2023/04/14 02:27:07;;;;;;;4.88;1.50;;;;;;;;;;5030475;28;20499;-72
2023/04/14 02:29:33;;;;;;;5.50;1.67;;;;;;;;;;5027062;28;20237;-72
2023/04/14 02:32:01;;;;;;;6.15;1.65;;;;;;;;;;5030388;28;20022;-72
2023/04/14 02:34:29;;;;;;;11.32;3.00;;;;;;;;;;5029691;28;20470;-72
2023/04/14 02:36:56;;;;;;;6.97;2.42;;;;;;;;;;5028160;28;20486;-72
2023/04/14 02:39:35;;;;;;;4.03;1.73;;;;;;;;;;5027975;28;20028;-72
2023/04/14 02:42:04;;;;;;;2.57;1.50;;;;;;;;;;5026073;28;20059;-72
2023/04/14 02:44:33;;;;;;;6.40;1.23;;;;;;;;;;5029763;28;20100;-72
2023/04/14 02:47:02;;;;;;;11.40;1.60;;;;;;;;;;5029349;28;20675;-71
2023/04/14 02:49:31;;;;;;;6.78;1.67;;;;;;;;;;5030654;28;20767;-72
2023/04/14 02:51:56;;;;;;;6.30;1.95;;;;;;;;;;5027170;28;20083;-72
2023/04/14 02:54:22;;;;;;;3.00;1.67;;;;;;;;;;5027307;28;20029;-72
2023/04/14 02:56:47;;;;;;;4.60;1.40;;;;;;;;;;5029630;28;20060;-73
2023/04/14 02:59:13;;;;;;;6.65;1.35;;;;;;;;;;5028364;28;20029;-72
2023/04/14 03:01:38;;;;;;;8.95;2.15;;;;;;;;;;5030610;28;20040;-72
2023/04/14 03:04:03;;;;;;;4.38;1.70;;;;;;;;;;5031321;28;20482;-72
2023/04/14 03:06:30;;;;;;;4.47;1.25;;;;;;;;;;5029122;28;20470;-72
2023/04/14 03:08:56;;;;;;;5.95;1.42;;;;;;;;;;5028591;28;20032;-72
2023/04/14 03:11:21;;;;;;;9.57;1.67;;;;;;;;;;5029537;28;20390;-72
2023/04/14 03:13:47;;;;;;;4.70;1.70;;;;;;;;;;5028240;28;20067;-72
2023/04/14 03:16:13;;;;;;;5.72;1.83;;;;;;;;;;5030447;28;20498;-72
2023/04/14 03:18:39;;;;;;;5.10;1.33;;;;;;;;;;5027684;28;20057;-72
2023/04/14 03:21:05;;;;;;;7.78;1.33;;;;;;;;;;5028312;28;20022;-72
2023/04/14 03:23:31;;;;;;;3.30;1.60;;;;;;;;;;5028012;28;20025;-72
2023/04/14 03:25:57;;;;;;;3.80;1.40;;;;;;;;;;5027422;28;20447;-72
2023/04/14 03:28:23;;;;;;;6.22;1.75;;;;;;;;;;5031629;28;20112;-71
2023/04/14 03:30:50;;;;;;;10.75;2.20;;;;;;;;;;5026914;28;20029;-72
2023/04/14 03:33:22;;;;;;;5.47;1.90;;;;;;;;;;5026935;28;20100;-72
2023/04/14 03:35:49;;;;;;;8.88;1.30;;;;;;;;;;5026737;28;20052;-72
2023/04/14 03:38:15;;;;;;;8.18;1.65;;;;;;;;;;5027028;28;20462;-71
2023/04/14 03:40:43;;;;;;;5.30;1.52;;;;;;;;;;5030080;28;20021;-72
2023/04/14 03:43:11;;;;;;;5.38;1.33;;;;;;;;;;5029189;28;20229;-71
2023/04/14 03:45:39;;;;;;;3.42;1.40;;;;;;;;;;5027231;28;20017;-71
2023/04/14 03:48:06;;;;;;;3.55;1.50;;;;;;;;;;5030335;28;20029;-72
2023/04/14 03:50:35;;;;;;;7.72;1.48;;;;;;;;;;5029192;28;20423;-72
2023/04/14 03:53:00;;;;;;;4.60;1.33;;;;;;;;;;5030319;28;20136;-73
2023/04/14 03:55:26;;;;;;;6.53;1.73;;;;;;;;;;5028779;28;20514;-72
2023/04/14 03:57:53;;;;;;;5.35;1.70;;;;;;;;;;5028811;28;20048;-72
2023/04/14 04:00:19;;;;;;;3.70;1.50;;;;;;;;;;5026799;28;20021;-72
2023/04/14 04:02:44;;;;;;;6.00;1.60;;;;;;;;;;5030932;28;20432;-72
2023/04/14 04:05:10;;;;;;;7.28;1.50;;;;;;;;;;5027128;28;20030;-72
2023/04/14 04:07:36;;;;;;;5.28;1.65;;;;;;;;;;5026933;28;20017;-72
2023/04/14 04:10:03;;;;;;;6.78;2.20;;;;;;;;;;5027820;28;20356;-72
2023/04/14 04:12:30;;;;;;;11.15;1.80;;;;;;;;;;5027625;28;20096;-71
2023/04/14 04:14:55;;;;;;;6.13;1.80;;;;;;;;;;5027263;28;20030;-70
2023/04/14 04:17:22;;;;;;;4.15;1.77;;;;;;;;;;5024889;28;20028;-71
2023/04/14 04:19:48;;;;;;;5.30;1.92;;;;;;;;;;5041164;28;20418;-70
2023/04/14 04:22:15;;;;;;;7.65;1.73;;;;;;;;;;5029345;28;20033;-73
2023/04/14 04:24:41;;;;;;;8.13;1.70;;;;;;;;;;5031064;28;20032;-72
2023/04/14 04:27:07;;;;;;;6.47;1.90;;;;;;;;;;5027073;28;20029;-73
2023/04/14 04:29:32;;;;;;;3.42;1.70;;;;;;;;;;5027241;28;20025;-72
2023/04/14 04:31:58;;;;;;;4.18;2.10;;;;;;;;;;5028818;28;20033;-72
2023/04/14 04:34:24;;;;;;;11.05;2.28;;;;;;;;;;5029103;28;20025;-71
2023/04/14 04:36:49;;;;;;;10.50;1.90;;;;;;;;;;5026622;28;20017;-72
2023/04/14 04:39:14;;;;;;;9.55;2.13;;;;;;;;;;5030858;28;20075;-72
2023/04/14 04:41:40;;;;;;;6.35;2.40;;;;;;;;;;5032676;28;20055;-72
2023/04/14 04:44:05;;;;;;;6.20;2.22;;;;;;;;;;5036007;28;20032;-72
2023/04/14 04:46:33;;;;;;;9.93;1.88;;;;;;;;;;5031223;28;20022;-73
2023/04/14 04:48:58;;;;;;;8.43;2.13;;;;;;;;;;5030844;28;20064;-72
2023/04/14 04:51:24;;;;;;;7.03;2.03;;;;;;;;;;5030792;28;20052;-71
2023/04/14 04:53:49;;;;;;;8.02;1.80;;;;;;;;;;5032378;28;20354;-72
2023/04/14 04:56:14;;;;;;;6.80;1.92;;;;;;;;;;5031512;28;20028;-72
2023/04/14 04:58:40;;;;;;;5.83;2.00;;;;;;;;;;5029278;28;20063;-71
2023/04/14 05:01:06;;;;;;;5.13;1.92;;;;;;;;;;5031266;28;20268;-72
2023/04/14 05:03:31;;;;;;;4.95;1.67;;;;;;;;;;5029627;28;20438;-72
2023/04/14 05:05:57;;;;;;;5.90;1.83;;;;;;;;;;5030603;28;20056;-71
2023/04/14 05:08:22;;;;;;;7.68;1.92;;;;;;;;;;5031210;28;20279;-71
2023/04/14 05:10:48;;;;;;;3.23;1.60;;;;;;;;;;5028926;28;20018;-72
2023/04/14 05:13:13;;;;;;;7.72;2.10;;;;;;;;;;5028258;28;20915;-72
2023/04/14 05:15:38;;;;;;;7.77;2.00;;;;;;;;;;5031329;28;20033;-72
2023/04/14 05:18:03;;;;;;;6.85;2.15;;;;;;;;;;5030955;28;20283;-71
2023/04/14 05:20:28;;;;;;;4.80;2.15;;;;;;;;;;5030929;28;20536;-72
2023/04/14 05:22:54;;;;;;;7.80;2.28;;;;;;;;;;5031265;28;20112;-72
2023/04/14 05:25:19;;;;;;;14.20;3.85;;;;;;;;;;5030833;28;20501;-71
2023/04/14 05:27:44;;;;;;;6.22;1.90;;;;;;;;;;5032879;28;20017;-71
2023/04/14 05:30:10;;;;;;;10.27;2.23;;;;;;;;;;5029903;28;20048;-72
2023/04/14 05:32:35;;;;;;;6.07;2.33;;;;;;;;;;5031377;28;20637;-71
2023/04/14 05:35:01;;;;;;;8.00;2.23;;;;;;;;;;5029707;28;20029;-72
2023/04/14 05:37:28;;;;;;;10.57;2.38;;;;;;;;;;5031454;28;20743;-72
2023/04/14 05:39:53;;;;;;;4.63;2.35;;;;;;;;;;5029866;28;20025;-71
2023/04/14 05:42:19;;;;;;;6.23;1.90;;;;;;;;;;5033043;28;20025;-71
2023/04/14 05:44:44;;;;;;;10.68;2.75;;;;;;;;;;5028796;28;20327;-73
2023/04/14 05:47:09;;;;;;;5.38;2.25;;;;;;;;;;5027487;28;20029;-72
2023/04/14 05:49:34;;;;;;;10.00;2.38;;;;;;;;;;5029662;28;20432;-72
2023/04/14 05:52:00;;;;;;;7.95;2.53;;;;;;;;;;5023861;28;20044;-71
2023/04/14 05:54:25;;;;;;;8.73;2.65;;;;;;;;;;5025130;28;20048;-72
2023/04/14 05:56:50;;;;;;;8.50;2.63;;;;;;;;;;5026716;28;20041;-71
2023/04/14 05:59:16;;;;;;;5.93;1.60;;;;;;;;;;5026667;28;20264;-72
2023/04/14 06:01:41;;;;;;;5.50;2.15;;;;;;;;;;5028787;28;20026;-73
2023/04/14 06:04:06;;;;;;;8.70;2.53;;;;;;;;;;5027225;28;20021;-71
2023/04/14 06:06:32;;;;;;;7.17;2.27;;;;;;;;;;5028007;28;20025;-72
2023/04/14 06:08:57;;;;;;;5.80;2.58;;;;;;;;;;5030834;28;20279;-71
2023/04/14 06:11:22;;;;;;;7.50;2.10;;;;;;;;;;5025727;28;20056;-71
2023/04/14 06:13:47;;;;;;;6.43;2.10;;;;;;;;;;5028522;28;20268;-72
2023/04/14 06:16:12;;;;;;;4.17;1.90;;;;;;;;;;5028354;28;20338;-72
2023/04/14 06:18:37;;;;;;;8.63;2.33;;;;;;;;;;5032235;28;20280;-72
2023/04/14 06:21:03;;;;;;;8.27;2.83;;;;;;;;;;5033251;28;20287;-71
2023/04/14 06:23:30;;;;;;;8.57;2.78;;;;;;;;;;5033697;28;20350;-72
2023/04/14 06:25:56;;;;;;;4.65;2.28;;;;;;;;;;5028525;28;20440;-71
2023/04/14 06:28:24;;;;;;;9.00;2.92;;;;;;;;;;5030720;28;20669;-71
2023/04/14 06:30:50;;;;;;;7.85;2.13;;;;;;;;;;5027728;28;20029;-72
2023/04/14 06:33:15;;;;;;;14.75;1.52;;;;;;;;;;5028388;28;20079;-71
2023/04/14 06:35:42;;;;;;;5.70;1.30;;;;;;;;;;5026988;28;20029;-72
2023/04/14 06:38:07;;;;;;;8.43;2.17;;;;;;;;;;5023916;28;20037;-71
2023/04/14 06:40:32;;;;;;;4.22;1.00;;;;;;;;;;5022582;28;20371;-73
2023/04/14 06:42:57;;;;;;;2.33;0.93;;;;;;;;;;5028214;28;20025;-72
2023/04/14 06:45:23;;;;;;;6.37;1.93;;;;;;;;;;5029397;28;20856;-72
2023/04/14 06:47:48;;;;;;;3.90;1.02;;;;;;;;;;5032791;28;20331;-72
2023/04/14 06:50:13;;;;;;;13.67;4.93;;;;;;;;;;5028815;28;20029;-72
2023/04/14 06:52:38;;;;;;;1.52;0.65;;;;;;;;;;5028384;28;20824;-72
2023/04/14 06:55:03;;;;;;;0.70;0.70;;;;;;;;;;5031695;28;20565;-71
2023/04/14 06:57:29;;;;;;;8.73;1.80;;;;;;;;;;5031852;28;20350;-72
2023/04/14 06:59:55;;;;;;;5.13;1.60;;;;;;;;;;5034850;28;20025;-73
2023/04/14 07:02:20;;;;;;;8.48;2.20;;;;;;;;;;5031799;28;20272;-72
2023/04/14 07:04:45;;;;;;;7.80;1.97;;;;;;;;;;5030239;28;20099;-70
2023/04/14 07:07:13;;;;;;;8.73;1.93;;;;;;;;;;5029069;28;20283;-71
2023/04/14 07:09:38;;;;;;;8.35;1.80;;;;;;;;;;5031351;28;20646;-70
2023/04/14 07:12:03;;;;;;;6.87;2.10;;;;;;;;;;5030943;28;20067;-70
2023/04/14 07:14:30;;;;;;;5.78;2.67;;;;;;;;;;5029031;28;20025;-70
2023/04/14 07:16:55;;;;;;;6.78;1.58;;;;;;;;;;5032445;28;20390;-70
2023/04/14 07:19:20;;;;;;;4.05;2.10;;;;;;;;;;5029883;28;20021;-70
2023/04/14 07:21:45;;;;;;;6.10;2.53;;;;;;;;;;5028601;28;20026;-69
2023/04/14 07:24:11;;;;;;;7.10;2.10;;;;;;;;;;5029368;28;20256;-70
2023/04/14 07:26:36;;;;;;;4.90;1.85;;;;;;;;;;5028081;28;20494;-70
2023/04/14 07:29:01;;;;;;;6.30;2.67;;;;;;;;;;5030402;28;20052;-70
2023/04/14 07:31:27;;;;;;;6.30;2.10;;;;;;;;;;5027781;28;20482;-71
2023/04/14 07:33:52;;;;;;;15.15;2.38;;;;;;;;;;5031641;28;20029;-70
2023/04/14 07:36:17;;;;;;;5.50;1.58;;;;;;;;;;5029900;28;20032;-69
2023/04/14 07:38:42;;;;;;;16.98;3.03;;;;;;;;;;5032170;28;20025;-69
2023/04/14 07:41:08;;;;;;;4.30;1.57;;;;;;;;;;5029123;28;20017;-70
2023/04/14 07:43:36;;;;;;;3.73;1.70;;;;;;;;;;5033050;28;20282;-69
2023/04/14 07:46:05;;;;;;;6.45;1.60;;;;;;;;;;5031657;28;20282;-69
2023/04/14 07:48:30;;;;;;;4.90;1.88;;;;;;;;;;5032565;28;20117;-71
2023/04/14 07:50:57;;;;;;;4.38;1.67;;;;;;;;;;5031916;28;20497;-69
2023/04/14 07:53:22;;;;;;;8.00;1.90;;;;;;;;;;5030523;28;20025;-69
2023/04/14 07:55:47;;;;;;;5.68;2.08;;;;;;;;;;5029365;28;20538;-69
2023/04/14 07:58:12;;;;;;;7.37;1.73;;;;;;;;;;5032558;28;20037;-69
2023/04/14 08:00:37;;;;;;;8.20;2.07;;;;;;;;;;5028458;28;20075;-69
2023/04/14 08:03:03;;;;;;;9.18;2.72;;;;;;;;;;5036419;28;20029;-70
2023/04/14 08:05:28;;;;;;;9.80;2.38;;;;;;;;;;5029634;28;20123;-69
2023/04/14 08:07:53;;;;;;;5.53;1.80;;;;;;;;;;5032019;28;20033;-70
2023/04/14 08:10:19;;;;;;;8.93;1.57;;;;;;;;;;5033687;28;20466;-69
2023/04/14 08:12:44;;;;;;;7.25;1.75;;;;;;;;;;5027434;28;20068;-69
2023/04/14 08:15:09;;;;;;;9.33;2.60;;;;;;;;;;5026925;28;20017;-71
2023/04/14 08:17:34;;;;;;;6.28;2.17;;;;;;;;;;5027587;28;20017;-69
2023/04/14 08:20:00;;;;;;;9.20;2.43;;;;;;;;;;5028764;28;20036;-70
2023/04/14 08:22:25;;;;;;;10.10;2.20;;;;;;;;;;5028466;28;20128;-70
2023/04/14 08:24:50;;;;;;;3.75;1.70;;;;;;;;;;5034501;28;20276;-70
2023/04/14 08:27:15;;;;;;;6.05;1.70;;;;;;;;;;5032314;28;20024;-68
2023/04/14 08:29:40;;;;;;;9.63;2.37;;;;;;;;;;5028245;28;20507;-70
2023/04/14 08:32:06;;;;;;;4.17;1.50;;;;;;;;;;5032253;28;20053;-68
2023/04/14 08:34:31;;;;;;;5.10;1.80;;;;;;;;;;5029257;28;20025;-69
2023/04/14 08:36:59;;;;;;;9.67;1.40;;;;;;;;;;5030876;28;20033;-70
2023/04/14 08:39:24;;;;;;;7.30;1.92;;;;;;;;;;5030186;28;20482;-69
2023/04/14 08:41:51;;;;;;;6.03;1.85;;;;;;;;;;5029854;28;20033;-69
2023/04/14 08:44:16;;;;;;;5.75;1.85;;;;;;;;;;5033490;28;20383;-69
2023/04/14 08:46:42;;;;;;;9.47;1.40;;;;;;;;;;5025732;28;20055;-69
2023/04/14 08:49:11;;;;;;;9.70;1.70;;;;;;;;;;5026455;28;20033;-68
2023/04/14 08:51:41;;;;;;;10.13;2.22;;;;;;;;;;5025780;28;20025;-70
2023/04/14 08:54:10;;;;;;;10.52;1.92;;;;;;;;;;5031981;28;20037;-68
2023/04/14 08:56:40;;;;;;;8.52;1.80;;;;;;;;;;5027111;28;20029;-68
2023/04/14 08:59:05;;;;;;;7.22;1.40;;;;;;;;;;5028370;28;20025;-71
2023/04/14 09:01:32;;;;;;;2.67;1.08;;;;;;;;;;5027522;28;20411;-71
2023/04/14 09:03:57;;;;;;;4.43;1.38;;;;;;;;;;5027273;28;20022;-71
2023/04/14 09:06:26;;;;;;;8.52;1.63;;;;;;;;;;5028524;28;20513;-70
2023/04/14 09:08:52;;;;;;;7.35;1.92;;;;;;;;;;5024410;28;20112;-71
2023/04/14 09:11:17;;;;;;;3.58;1.17;;;;;;;;;;5028485;28;20097;-71
2023/04/14 09:13:43;;;;;;;5.88;1.35;;;;;;;;;;5024733;28;20041;-71
2023/04/14 09:16:10;;;;;;;4.32;1.50;;;;;;;;;;5035711;28;20486;-71
2023/04/14 09:18:35;;;;;;;4.75;0.68;;;;;;;;;;5037003;28;20521;-70
2023/04/14 09:21:00;;;;;;;6.55;1.85;;;;;;;;;;5037635;28;20029;-70
2023/04/14 09:23:25;;;;;;;9.45;1.63;;;;;;;;;;5034327;28;20029;-71
2023/04/14 09:25:51;;;;;;;8.67;1.30;;;;;;;;;;5032708;28;20048;-70
2023/04/14 09:28:16;;;;;;;5.13;1.13;;;;;;;;;;5033336;28;20287;-70
2023/04/14 09:30:42;;;;;;;6.50;1.35;;;;;;;;;;5030751;28;20291;-70
2023/04/14 09:33:16;;;;;;;8.65;1.40;;;;;;;;;;5038124;28;20426;-71
2023/04/14 09:35:46;;;;;;;4.63;1.48;;;;;;;;;;5031688;28;20033;-70
2023/04/14 09:38:11;;;;;;;4.60;0.98;;;;;;;;;;5040488;28;20031;-70
2023/04/14 09:40:37;;;;;;;4.67;1.30;;;;;;;;;;5035396;28;20021;-71
2023/04/14 09:43:03;;;;;;;3.75;0.75;;;;;;;;;;5032414;28;20383;-71
2023/04/14 09:45:41;;;;;;;6.13;1.15;;;;;;;;;;5029280;28;20465;-70
2023/04/14 09:48:07;;;;;;;7.70;1.33;;;;;;;;;;5034121;28;20513;-71
2023/04/14 09:50:52;;;;;;;6.25;1.73;;;;;;;;;;5028804;28;20112;-71
2023/04/14 09:53:23;;;;;;;7.53;1.08;;;;;;;;;;5031270;28;20037;-72
2023/04/14 09:55:49;;;;;;;7.30;1.02;;;;;;;;;;5027500;28;20032;-71
2023/04/14 09:58:20;;;;;;;7.75;1.50;;;;;;;;;;5031580;28;20547;-71
2023/04/14 10:00:45;;;;;;;5.43;1.30;;;;;;;;;;5029845;28;20021;-73
2023/04/14 10:03:11;;;;;;;6.97;2.03;;;;;;;;;;5030266;28;20021;-71
2023/04/14 10:05:36;;;;;;;8.35;1.85;;;;;;;;;;5030590;28;20368;-71
2023/04/14 10:08:02;;;;;;;10.45;1.63;;;;;;;;;;5034735;28;20025;-72
2023/04/14 10:10:28;;;;;;;8.40;1.50;;;;;;;;;;5031930;28;20501;-72
2023/04/14 10:12:53;;;;;;;7.57;1.60;;;;;;;;;;5030658;28;20026;-71
2023/04/14 10:15:18;;;;;;;4.97;0.75;;;;;;;;;;5030031;28;20017;-71
2023/04/14 10:17:44;;;;;;;5.22;0.98;;;;;;;;;;5026869;28;20850;-72
2023/04/14 10:20:09;;;;;;;4.15;0.75;;;;;;;;;;5029089;28;20045;-72
2023/04/14 10:22:35;;;;;;;3.70;1.45;;;;;;;;;;5031992;28;20013;-71
2023/04/14 10:25:01;;;;;;;7.10;1.30;;;;;;;;;;5034318;28;20156;-71
2023/04/14 10:27:27;;;;;;;6.45;0.77;;;;;;;;;;5029680;28;20032;-72
2023/04/14 10:29:52;;;;;;;7.53;2.20;;;;;;;;;;5027669;28;20116;-71
2023/04/14 10:32:18;;;;;;;7.50;1.33;;;;;;;;;;5028062;28;20155;-73
2023/04/14 10:35:17;;;;;;;8.80;1.85;;;;;;;;;;5028954;28;20033;-71
2023/04/14 10:37:48;;;;;;;5.68;1.40;;;;;;;;;;5026174;28;20699;-72
2023/04/14 10:40:13;;;;;;;6.25;1.60;;;;;;;;;;5039443;28;20028;-71
2023/04/14 10:42:51;;;;;;;6.70;1.30;;;;;;;;;;5033135;28;20363;-72
2023/04/14 10:45:16;;;;;;;3.13;0.85;;;;;;;;;;5028202;28;20671;-71
2023/04/14 10:47:44;;;;;;;5.40;0.90;;;;;;;;;;5024833;28;20101;-72
2023/04/14 10:50:13;;;;;;;8.15;2.50;;;;;;;;;;5034412;28;20025;-72
2023/04/14 10:52:47;;;;;;;6.32;0.90;;;;;;;;;;5029368;28;20047;-71
2023/04/14 10:55:13;;;;;;;7.18;0.77;;;;;;;;;;5031226;28;20390;-71
2023/04/14 10:57:42;;;;;;;3.43;1.30;;;;;;;;;;5027598;28;20033;-73
2023/04/14 11:00:18;;;;;;;5.78;1.35;;;;;;;;;;5033642;28;20272;-72
2023/04/14 11:02:55;;;;;;;6.50;0.90;;;;;;;;;;5031998;28;20021;-72
2023/04/14 11:05:21;;;;;;;8.23;1.63;;;;;;;;;;5032010;28;20100;-72
2023/04/14 11:07:47;;;;;;;7.53;1.30;;;;;;;;;;5028347;28;20108;-72
2023/04/14 11:10:15;;;;;;;4.88;1.02;;;;;;;;;;5032352;28;20090;-71
2023/04/14 11:12:42;;;;;;;2.00;0.80;;;;;;;;;;5028327;28;20104;-72
2023/04/14 11:15:07;;;;;;;2.58;1.02;;;;;;;;;;5031919;28;20017;-72
2023/04/14 11:17:36;;;;;;;2.60;0.52;;;;;;;;;;5030291;28;20053;-71
2023/04/14 11:20:12;;;;;;;3.65;0.85;;;;;;;;;;5031467;28;20020;-72
2023/04/14 11:22:39;;;;;;;5.10;0.95;;;;;;;;;;5036714;28;20013;-72
2023/04/14 11:25:05;;;;;;;1.58;0.38;;;;;;;;;;5025212;28;20017;-71
2023/04/14 11:27:31;;;;;;;7.00;0.88;;;;;;;;;;5034094;28;20025;-72
2023/04/14 11:29:58;;;;;;;5.22;0.60;;;;;;;;;;5030937;28;20102;-72
2023/04/14 11:32:23;;;;;;;0.75;0.40;;;;;;;;;;5030111;28;20025;-71
2023/04/14 11:34:48;;;;;;;3.03;1.13;;;;;;;;;;5031572;28;20028;-72
2023/04/14 11:37:14;;;;;;;0.80;0.70;;;;;;;;;;5028474;28;20030;-71
2023/04/14 11:39:39;;;;;;;7.00;1.73;;;;;;;;;;5026891;28;20477;-70
2023/04/14 11:42:04;;;;;;;5.93;1.17;;;;;;;;;;5029783;28;20279;-69
2023/04/14 11:44:29;;;;;;;6.78;1.17;;;;;;;;;;5031884;28;20264;-68
2023/04/14 11:46:54;;;;;;;5.63;1.20;;;;;;;;;;5034095;28;20104;-69
2023/04/14 11:49:30;;;;;;;7.95;1.77;;;;;;;;;;5025369;28;20028;-70
2023/04/14 11:52:02;;;;;;;2.83;1.10;;;;;;;;;;5025556;28;20022;-70
2023/04/14 11:54:33;;;;;;;7.18;1.30;;;;;;;;;;5025529;28;20025;-70
2023/04/14 11:56:58;;;;;;;13.20;1.45;;;;;;;;;;5028492;28;20079;-70
2023/04/14 11:59:24;;;;;;;6.50;1.70;;;;;;;;;;5024016;28;20029;-70
2023/04/14 12:01:51;;;;;;;1.15;0.65;;;;;;;;;;5027248;28;20025;-70
2023/04/14 12:04:17;;;;;;;3.80;0.60;;;;;;;;;;5022873;28;20048;-70
2023/04/14 12:06:42;;;;;;;5.35;0.90;;;;;;;;;;5026755;28;20049;-71
2023/04/14 12:09:08;;;;;;;2.92;0.52;;;;;;;;;;5027972;28;20025;-71
2023/04/14 12:11:33;;;;;;;3.20;0.82;;;;;;;;;;5026848;28;20461;-73
2023/04/14 12:13:58;;;;;;;6.40;1.57;;;;;;;;;;5040465;28;20021;-71
2023/04/14 12:16:25;;;;;;;0.65;0.17;;;;;;;;;;5021416;28;20024;-70
2023/04/14 12:18:50;;;;;;;4.57;1.23;;;;;;;;;;5024319;28;20025;-68
2023/04/14 12:21:18;;;;;;;4.93;0.50;;;;;;;;;;5021752;28;20546;-68
2023/04/14 12:23:47;;;;;;;0.50;0.35;;;;;;;;;;5025296;28;20319;-68
2023/04/14 12:26:12;;;;;;;2.17;0.80;;;;;;;;;;5032548;28;20020;-68
2023/04/14 12:28:40;;;;;;;3.47;1.67;;;;;;;;;;5023897;28;20018;-69
2023/04/14 12:31:06;;;;;;;6.43;1.02;;;;;;;;;;5030042;28;20280;-68
2023/04/14 12:33:32;;;;;;;4.63;0.73;;;;;;;;;;5027162;28;20474;-69
2023/04/14 12:36:03;;;;;;;3.65;0.90;;;;;;;;;;5031602;28;20113;-69
2023/04/14 12:38:29;;;;;;;6.25;0.98;;;;;;;;;;5028975;28;20044;-72
2023/04/14 12:40:55;;;;;;;5.38;0.90;;;;;;;;;;5028950;28;20021;-69
2023/04/14 12:43:34;;;;;;;2.20;0.60;;;;;;;;;;5030876;28;20025;-71
2023/04/14 12:46:02;;;;;;;0.85;0.35;;;;;;;;;;5023406;28;20018;-70
2023/04/14 12:48:44;;;;;;;4.53;0.60;;;;;;;;;;5022353;28;20018;-69
2023/04/14 12:51:10;;;;;;;5.30;1.25;;;;;;;;;;5024984;28;20040;-71
2023/04/14 12:53:36;;;;;;;3.28;0.70;;;;;;;;;;5027036;28;20382;-71
2023/04/14 12:56:05;;;;;;;0.60;0.22;;;;;;;;;;5026027;28;20096;-72
2023/04/14 12:58:31;;;;;;;4.13;0.80;;;;;;;;;;5030210;28;20021;-71
2023/04/14 13:00:56;;;;;;;1.42;0.60;;;;;;;;;;5028430;28;20029;-71
2023/04/14 13:03:21;;;;;;;1.20;0.63;;;;;;;;;;5030625;28;20813;-72
2023/04/14 13:05:46;;;;;;;4.80;1.00;;;;;;;;;;5029725;28;20061;-71
2023/04/14 13:08:13;;;;;;;4.60;1.10;;;;;;;;;;5028213;28;20283;-72
2023/04/14 13:10:38;;;;;;;2.42;0.82;;;;;;;;;;5026337;28;20056;-71
2023/04/14 13:13:03;;;;;;;3.42;0.88;;;;;;;;;;5030640;28;20053;-70
2023/04/14 13:15:31;;;;;;;4.07;1.20;;;;;;;;;;5027837;28;20030;-71
2023/04/14 13:17:56;;;;;;;3.72;0.77;;;;;;;;;;5026849;28;20876;-75
2023/04/14 13:20:21;;;;;;;4.43;1.40;;;;;;;;;;5029745;28;20191;-72
2023/04/14 13:22:46;;;;;;;3.27;0.67;;;;;;;;;;5030157;28;20021;-73
2023/04/14 13:25:12;;;;;;;4.50;0.85;;;;;;;;;;5051815;28;20259;-71
2023/04/14 13:27:37;;;;;;;3.42;0.50;;;;;;;;;;5029581;28;20029;-72
2023/04/14 13:30:02;;;;;;;3.38;0.80;;;;;;;;;;5029403;28;20025;-70
2023/04/14 13:32:27;;;;;;;3.38;1.13;;;;;;;;;;5031279;28;20021;-71
2023/04/14 13:34:52;;;;;;;2.30;0.90;;;;;;;;;;5031978;28;20047;-71
2023/04/14 13:37:18;;;;;;;6.70;1.00;;;;;;;;;;5031995;28;20033;-74
2023/04/14 13:39:43;;;;;;;3.07;0.90;;;;;;;;;;5031402;28;20149;-71
2023/04/14 13:42:09;;;;;;;4.05;0.70;;;;;;;;;;5030242;28;20765;-70
2023/04/14 13:44:34;;;;;;;1.55;0.28;;;;;;;;;;5023116;28;20014;-71
2023/04/14 13:46:59;;;;;;;2.33;0.88;;;;;;;;;;5025955;28;20017;-70
2023/04/14 13:49:25;;;;;;;5.47;0.87;;;;;;;;;;5029189;28;20482;-71
2023/04/14 13:51:50;;;;;;;3.63;0.88;;;;;;;;;;5029342;28;20295;-70
2023/04/14 13:54:15;;;;;;;7.03;1.13;;;;;;;;;;5023027;28;20022;-70
2023/04/14 13:56:41;;;;;;;3.50;0.80;;;;;;;;;;5025462;28;20057;-70
2023/04/14 13:59:06;;;;;;;2.80;0.50;;;;;;;;;;5026953;28;20021;-70
2023/04/14 14:01:32;;;;;;;4.85;0.70;;;;;;;;;;5036551;28;20028;-71
2023/04/14 14:03:57;;;;;;;7.47;0.68;;;;;;;;;;5030890;28;20026;-70
2023/04/14 14:06:22;;;;;;;3.20;0.70;;;;;;;;;;5029653;28;20051;-70
2023/04/14 14:08:57;;;;;;;7.73;1.20;;;;;;;;;;5024821;28;20017;-70
2023/04/14 14:11:23;;;;;;;0.20;0.20;;;;;;;;;;5029220;28;20318;-70
2023/04/14 14:13:48;;;;;;;4.03;0.90;;;;;;;;;;5029549;28;20025;-71
2023/04/14 14:16:13;;;;;;;1.97;0.80;;;;;;;;;;5030815;28;20037;-70
2023/04/14 14:18:39;;;;;;;1.58;0.50;;;;;;;;;;5030250;28;20032;-70
2023/04/14 14:21:05;;;;;;;5.00;1.00;;;;;;;;;;5028642;28;20033;-70
2023/04/14 14:23:30;;;;;;;5.53;1.25;;;;;;;;;;5026997;28;20020;-70
2023/04/14 14:25:55;;;;;;;5.40;1.20;;;;;;;;;;5025917;28;20014;-70
2023/04/14 14:28:21;;;;;;;2.65;0.55;;;;;;;;;;5032197;28;20029;-73
2023/04/14 14:30:46;;;;;;;3.80;1.07;;;;;;;;;;5029981;28;20049;-70
2023/04/14 14:33:11;;;;;;;2.33;0.60;;;;;;;;;;5026299;28;20362;-70
2023/04/14 14:35:36;;;;;;;5.70;0.70;;;;;;;;;;5028991;28;20025;-70
2023/04/14 14:38:02;;;;;;;7.97;1.13;;;;;;;;;;5029953;28;20896;-72